Time;durP1;ratioP1;P1;durP2;ratioP2;P2;SDS_P1;SDS_P2;PMS_P1;PMS_P2;Temp;Humidity;BMP_temperature;BMP_pressure;BME280_temperature;BME280_humidity;BME280_pressure;Samples;Min_cycle;Max_cycle;Signal;HPM_P1;HPM_P2
2021/12/02 00:00:05;;;;;;;;;;;;;;;;;;5104289;28;1127;-76
2021/12/02 00:02:30;;;;;;;;;;;;;;;;;;5081769;28;1163;-75
2021/12/02 00:04:56;;;;;;;;;;;;;;;;;;5085861;28;1289;-74
2021/12/02 00:07:21;;;;;;;;;;;;;;;;;;5078890;28;1177;-76
2021/12/02 00:09:47;;;;;;;;;;;;;;;;;;5057097;28;1885;-76
2021/12/02 00:12:12;;;;;;;;;;;;;;;;;;5060666;28;1187;-76
2021/12/02 00:14:46;;;;;;;;;;;;;;;;;;5062402;28;1282;-75
2021/12/02 00:17:16;;;;;;;;;;;;;;;;;;5062601;28;1368;-75
2021/12/02 00:22:27;;;;;;;;;;;;;;;;;;5064325;28;1068;-76
2021/12/02 00:24:59;;;;;;;;;;;;;;;;;;5083244;28;1349;-76
2021/12/02 00:27:27;;;;;;;;;;;;;;;;;;5080273;28;1182;-76
2021/12/02 00:29:55;;;;;;;;;;;;;;;;;;5073728;28;1885;-75
2021/12/02 00:32:22;;;;;;;;;;;;;;;;;;5064039;28;1328;-76
2021/12/02 00:34:48;;;;;;;;;;;;;;;;;;5064262;28;1148;-76
2021/12/02 00:37:13;;;;;;;;;;;;;;;;;;5060624;28;1328;-77
2021/12/02 00:39:39;;;;;;;;;;;;;;;;;;5078892;28;1560;-76
2021/12/02 00:42:04;;;;;;;;;;;;;;;;;;5084472;28;1230;-76
2021/12/02 00:44:34;;;;;;;;;;;;;;;;;;5079246;28;1124;-77
2021/12/02 00:47:02;;;;;;;;;;;;;;;;;;5085736;28;1171;-77
2021/12/02 00:49:27;;;;;;;;;;;;;;;;;;5080378;28;1988;-76
2021/12/02 00:51:54;;;;;;;;;;;;;;;;;;5077066;28;1176;-77
2021/12/02 00:54:21;;;;;;;;;;;;;;;;;;5059469;28;1248;-76
2021/12/02 00:56:47;;;;;;;;;;;;;;;;;;5083061;28;1223;-75
2021/12/02 00:59:13;;;;;;;;;;;;;;;;;;5083403;28;1168;-75
2021/12/02 01:01:38;;;;;;;;;;;;;;;;;;5051473;28;1176;-75
2021/12/02 01:04:06;;;;;;;;;;;;;;;;;;5062687;28;1275;-75
2021/12/02 01:06:33;;;;;;;;;;;;;;;;;;5079604;28;1210;-75
2021/12/02 01:08:59;;;;;;;;;;;;;;;;;;5042357;28;1953;-75
2021/12/02 01:11:24;;;;;;;;;;;;;;;;;;5080069;28;992;-76
2021/12/02 01:13:49;;;;;;;;;;;;;;;;;;5078730;28;1068;-76
2021/12/02 01:16:16;;;;;;;;;;;;;;;;;;5044779;28;1267;-76
2021/12/02 01:18:42;;;;;;;;;;;;;;;;;;5080961;28;1281;-76
2021/12/02 01:21:12;;;;;;;;;;;;;;;;;;5081310;28;1214;-76
2021/12/02 01:23:38;;;;;;;;;;;;;;;;;;5059237;28;1279;-76
2021/12/02 01:26:05;;;;;;;;;;;;;;;;;;5080639;28;1159;-76
2021/12/02 01:28:31;;;;;;;;;;;;;;;;;;5058532;28;1897;-75
2021/12/02 01:30:56;;;;;;;;;;;;;;;;;;5065269;28;1152;-76
2021/12/02 01:33:22;;;;;;;;;;;;;;;;;;5064089;28;1239;-75
2021/12/02 01:35:49;;;;;;;;;;;;;;;;;;5055390;28;1200;-75
2021/12/02 01:38:15;;;;;;;;;;;;;;;;;;5080488;28;1380;-76
2021/12/02 01:40:42;;;;;;;;;;;;;;;;;;5064499;28;1140;-75
2021/12/02 01:43:09;;;;;;;;;;;;;;;;;;5085114;28;1128;-75
2021/12/02 01:45:39;;;;;;;;;;;;;;;;;;5062549;28;1273;-76
2021/12/02 01:48:08;;;;;;;;;;;;;;;;;;5067671;28;1168;-76
2021/12/02 01:50:34;;;;;;;;;;;;;;;;;;5062585;28;1187;-75
2021/12/02 01:53:00;;;;;;;;;;;;;;;;;;5076065;28;1314;-76
2021/12/02 01:55:27;;;;;;;;;;;;;;;;;;5083966;28;1009;-76
2021/12/02 01:58:00;;;;;;;;;;;;;;;;;;5097551;28;1171;-75
2021/12/02 02:00:27;;;;;;;;;;;;;;;;;;5080528;28;1393;-75
2021/12/02 02:02:53;;;;;;;;;;;;;;;;;;5103755;28;1199;-75
2021/12/02 02:05:18;;;;;;;;;;;;;;;;;;5104569;28;1019;-76
2021/12/02 02:07:52;;;;;;;;;;;;;;;;;;5084066;28;1195;-75
2021/12/02 02:10:18;;;;;;;;;;;;;;;;;;5101439;28;1890;-75
2021/12/02 02:12:43;;;;;;;;;;;;;;;;;;5099905;28;1147;-75
2021/12/02 02:15:09;;;;;;;;;;;;;;;;;;5085962;28;1183;-75
2021/12/02 02:17:48;;;;;;;;;;;;;;;;;;5081330;28;1108;-75
2021/12/02 02:20:14;;;;;;;;;;;;;;;;;;5086738;28;1230;-75
2021/12/02 02:22:40;;;;;;;;;;;;;;;;;;5073981;28;1179;-75
2021/12/02 02:25:11;;;;;;;;;;;;;;;;;;5063441;28;1133;-76
2021/12/02 02:27:37;;;;;;;;;;;;;;;;;;5065529;28;1195;-76
2021/12/02 02:30:04;;;;;;;;;;;;;;;;;;5069347;28;1902;-75
2021/12/02 02:32:31;;;;;;;;;;;;;;;;;;5068158;28;1104;-75
2021/12/02 02:34:57;;;;;;;;;;;;;;;;;;5087683;28;1203;-75
2021/12/02 02:37:22;;;;;;;;;;;;;;;;;;5099255;28;1397;-76
2021/12/02 02:39:49;;;;;;;;;;;;;;;;;;5084570;28;1333;-74
2021/12/02 02:42:15;;;;;;;;;;;;;;;;;;5087619;28;1143;-74
2021/12/02 02:44:41;;;;;;;;;;;;;;;;;;5083077;28;1115;-74
2021/12/02 02:47:06;;;;;;;;;;;;;;;;;;5106510;28;1293;-74
2021/12/02 02:49:31;;;;;;;;;;;;;;;;;;5068446;28;1906;-75
2021/12/02 02:51:57;;;;;;;;;;;;;;;;;;5101152;28;1325;-75
2021/12/02 02:54:23;;;;;;;;;;;;;;;;;;5099870;28;1187;-75
2021/12/02 02:56:55;;;;;;;;;;;;;;;;;;5070238;28;1328;-75
2021/12/02 02:59:35;;;;;;;;;;;;;;;;;;5082679;28;1207;-76
2021/12/02 03:07:12;;;;;;;;;;;;;;;;;;5080076;28;1105;-76
2021/12/02 03:10:14;;;;;;;;;;;;;;;;;;5060378;28;1894;-76
2021/12/02 03:12:43;;;;;;;;;;;;;;;;;;5076692;28;1185;-76
2021/12/02 03:17:34;;;;;;;;;;;;;;;;;;5081704;28;1115;-76
2021/12/02 03:20:00;;;;;;;;;;;;;;;;;;5066407;28;1219;-76
2021/12/02 03:22:26;;;;;;;;;;;;;;;;;;5059553;28;1377;-76
2021/12/02 03:24:51;;;;;;;;;;;;;;;;;;5080475;28;1226;-76
2021/12/02 03:27:26;;;;;;;;;;;;;;;;;;5101481;28;1152;-76
2021/12/02 03:29:51;;;;;;;;;;;;;;;;;;5058794;28;1894;-76
2021/12/02 03:32:17;;;;;;;;;;;;;;;;;;5066732;28;1069;-76
2021/12/02 03:34:42;;;;;;;;;;;;;;;;;;5045782;28;1207;-74
2021/12/02 03:37:08;;;;;;;;;;;;;;;;;;5044444;28;1336;-75
2021/12/02 03:39:33;;;;;;;;;;;;;;;;;;5061403;28;1095;-75
2021/12/02 03:41:59;;;;;;;;;;;;;;;;;;5085219;28;1230;-75
2021/12/02 03:44:24;;;;;;;;;;;;;;;;;;5046127;28;1249;-75
2021/12/02 03:46:50;;;;;;;;;;;;;;;;;;5066432;28;1349;-75
2021/12/02 03:49:15;;;;;;;;;;;;;;;;;;5084503;28;1918;-77
2021/12/02 03:51:41;;;;;;;;;;;;;;;;;;5061538;28;1195;-77
2021/12/02 03:54:06;;;;;;;;;;;;;;;;;;5063732;28;1262;-75
2021/12/02 03:56:33;;;;;;;;;;;;;;;;;;5080062;28;1187;-75
2021/12/02 03:58:58;;;;;;;;;;;;;;;;;;5064228;28;1077;-75
2021/12/02 04:01:23;;;;;;;;;;;;;;;;;;5048935;28;1680;-76
2021/12/02 04:03:49;;;;;;;;;;;;;;;;;;5047187;28;1183;-76
2021/12/02 04:06:14;;;;;;;;;;;;;;;;;;5085577;28;1219;-77
2021/12/02 04:08:50;;;;;;;;;;;;;;;;;;5059410;28;1889;-76
2021/12/02 04:13:53;;;;;;;;;;;;;;;;;;5080386;28;1238;-76
2021/12/02 04:16:20;;;;;;;;;;;;;;;;;;5083465;28;1052;-76
2021/12/02 04:18:46;;;;;;;;;;;;;;;;;;5099947;28;1053;-76
2021/12/02 04:21:12;;;;;;;;;;;;;;;;;;5068442;28;1254;-76
2021/12/02 04:23:38;;;;;;;;;;;;;;;;;;5078453;28;1234;-75
2021/12/02 04:26:03;;;;;;;;;;;;;;;;;;5064712;28;1436;-75
2021/12/02 04:28:29;;;;;;;;;;;;;;;;;;5076355;28;1889;-76
2021/12/02 04:30:54;;;;;;;;;;;;;;;;;;5072020;28;1211;-75
2021/12/02 04:33:19;;;;;;;;;;;;;;;;;;5100905;28;1152;-76
2021/12/02 04:35:45;;;;;;;;;;;;;;;;;;5080651;28;1191;-75
2021/12/02 04:38:10;;;;;;;;;;;;;;;;;;5062359;28;1348;-76
2021/12/02 04:40:36;;;;;;;;;;;;;;;;;;5092796;28;998;-76
2021/12/02 04:43:02;;;;;;;;;;;;;;;;;;5067689;28;1320;-75
2021/12/02 04:45:28;;;;;;;;;;;;;;;;;;5085125;28;1072;-75
2021/12/02 04:47:53;;;;;;;;;;;;;;;;;;5066297;28;1187;-75
2021/12/02 04:50:19;;;;;;;;;;;;;;;;;;5097061;28;1969;-76
2021/12/02 04:52:44;;;;;;;;;;;;;;;;;;5083735;28;1132;-77
2021/12/02 04:55:10;;;;;;;;;;;;;;;;;;5054190;28;1222;-76
2021/12/02 04:57:36;;;;;;;;;;;;;;;;;;5076208;28;1282;-75
2021/12/02 05:00:03;;;;;;;;;;;;;;;;;;5084198;28;1171;-75
2021/12/02 05:02:29;;;;;;;;;;;;;;;;;;5080318;28;1164;-75
2021/12/02 05:04:54;;;;;;;;;;;;;;;;;;5053631;28;1145;-76
2021/12/02 05:07:19;;;;;;;;;;;;;;;;;;5080404;28;1271;-76
2021/12/02 05:09:45;;;;;;;;;;;;;;;;;;5079576;28;1897;-75
2021/12/02 05:12:10;;;;;;;;;;;;;;;;;;5097961;28;1135;-76
2021/12/02 05:14:35;;;;;;;;;;;;;;;;;;5055564;28;1287;-77
2021/12/02 05:17:01;;;;;;;;;;;;;;;;;;5086461;28;1439;-77
2021/12/02 05:19:26;;;;;;;;;;;;;;;;;;5091369;28;1148;-76
2021/12/02 05:21:51;;;;;;;;;;;;;;;;;;5083552;28;1139;-75
2021/12/02 05:24:16;;;;;;;;;;;;;;;;;;5062064;28;1359;-75
2021/12/02 05:26:42;;;;;;;;;;;;;;;;;;5061599;28;1325;-75
2021/12/02 05:29:07;;;;;;;;;;;;;;;;;;5062332;28;1963;-76
2021/12/02 05:31:33;;;;;;;;;;;;;;;;;;5099166;28;1084;-76
2021/12/02 05:33:58;;;;;;;;;;;;;;;;;;5083940;28;1397;-76
2021/12/02 05:36:23;;;;;;;;;;;;;;;;;;5105237;28;1230;-75
2021/12/02 05:38:49;;;;;;;;;;;;;;;;;;5091993;28;1357;-75
2021/12/02 05:41:16;;;;;;;;;;;;;;;;;;5070833;28;1339;-75
2021/12/02 05:43:41;;;;;;;;;;;;;;;;;;5064237;28;1203;-77
2021/12/02 05:46:06;;;;;;;;;;;;;;;;;;5105647;28;1124;-76
2021/12/02 05:48:32;;;;;;;;;;;;;;;;;;5084730;28;1960;-76
2021/12/02 05:50:57;;;;;;;;;;;;;;;;;;5087383;28;1242;-76
2021/12/02 05:53:22;;;;;;;;;;;;;;;;;;5075271;28;1263;-76
2021/12/02 05:55:48;;;;;;;;;;;;;;;;;;5067225;28;1180;-76
2021/12/02 05:58:14;;;;;;;;;;;;;;;;;;5084938;28;1329;-76
2021/12/02 06:00:40;;;;;;;;;;;;;;;;;;5086881;28;1167;-76
2021/12/02 06:03:05;;;;;;;;;;;;;;;;;;5102837;28;1075;-76
2021/12/02 06:05:30;;;;;;;;;;;;;;;;;;5067203;28;1356;-76
2021/12/02 06:08:01;;;;;;;;;;;;;;;;;;5064589;28;1629;-75
2021/12/02 06:10:27;;;;;;;;;;;;;;;;;;5065102;28;1902;-75
2021/12/02 06:12:55;;;;;;;;;;;;;;;;;;5047909;28;1315;-75
2021/12/02 06:15:20;;;;;;;;;;;;;;;;;;5068079;28;1168;-76
2021/12/02 06:18:06;;;;;;;;;;;;;;;;;;5092807;28;1160;-77
2021/12/02 06:20:51;;;;;;;;;;;;;;;;;;5060101;28;1306;-78
2021/12/02 06:23:16;;;;;;;;;;;;;;;;;;5084107;28;1377;-77
2021/12/02 06:25:45;;;;;;;;;;;;;;;;;;5063256;28;1247;-75
2021/12/02 06:28:10;;;;;;;;;;;;;;;;;;5060081;28;1162;-75
2021/12/02 06:30:39;;;;;;;;;;;;;;;;;;5066386;28;1882;-76
2021/12/02 06:33:22;;;;;;;;;;;;;;;;;;5045762;28;1152;-81
2021/12/02 06:35:48;;;;;;;;;;;;;;;;;;5073568;28;1088;-76
2021/12/02 06:38:13;;;;;;;;;;;;;;;;;;5075855;28;1369;-75
2021/12/02 06:40:40;;;;;;;;;;;;;;;;;;5066060;28;1243;-74
2021/12/02 06:43:05;;;;;;;;;;;;;;;;;;5063743;28;1111;-76
2021/12/02 06:45:31;;;;;;;;;;;;;;;;;;5060300;28;1199;-73
2021/12/02 06:48:00;;;;;;;;;;;;;;;;;;5071059;28;1246;-77
2021/12/02 06:50:25;;;;;;;;;;;;;;;;;;5101838;28;1971;-76
2021/12/02 06:52:52;;;;;;;;;;;;;;;;;;5081429;28;1072;-77
2021/12/02 06:55:17;;;;;;;;;;;;;;;;;;5084796;28;1143;-75
2021/12/02 06:57:43;;;;;;;;;;;;;;;;;;5066358;28;1132;-75
2021/12/02 07:00:11;;;;;;;;;;;;;;;;;;5083678;28;1124;-76
2021/12/02 07:02:37;;;;;;;;;;;;;;;;;;5084129;28;1164;-76
2021/12/02 07:05:03;;;;;;;;;;;;;;;;;;5065794;28;1174;-76
2021/12/02 07:07:33;;;;;;;;;;;;;;;;;;5086839;28;1218;-76
2021/12/02 07:10:01;;;;;;;;;;;;;;;;;;5111624;28;2003;-76
2021/12/02 07:12:32;;;;;;;;;;;;;;;;;;5059758;28;1426;-76
2021/12/02 07:14:59;;;;;;;;;;;;;;;;;;5050121;28;1468;-76
2021/12/02 07:17:24;;;;;;;;;;;;;;;;;;5084232;28;1183;-76
2021/12/02 07:19:49;;;;;;;;;;;;;;;;;;5086054;28;1025;-76
2021/12/02 07:22:14;;;;;;;;;;;;;;;;;;5064895;28;1128;-76
2021/12/02 07:24:40;;;;;;;;;;;;;;;;;;5082393;28;1140;-76
2021/12/02 07:27:06;;;;;;;;;;;;;;;;;;5066352;28;1208;-76
2021/12/02 07:29:32;;;;;;;;;;;;;;;;;;5081796;28;1897;-76
2021/12/02 07:32:00;;;;;;;;;;;;;;;;;;5083580;28;1085;-76
2021/12/02 07:34:27;;;;;;;;;;;;;;;;;;5104496;28;1218;-76
2021/12/02 07:36:55;;;;;;;;;;;;;;;;;;5096302;28;1362;-76
2021/12/02 07:39:21;;;;;;;;;;;;;;;;;;5061898;28;1137;-75
2021/12/02 07:41:46;;;;;;;;;;;;;;;;;;5063349;28;1539;-76
2021/12/02 07:44:12;;;;;;;;;;;;;;;;;;5100622;28;1151;-75
2021/12/02 07:46:37;;;;;;;;;;;;;;;;;;5086311;28;1283;-76
2021/12/02 07:49:02;;;;;;;;;;;;;;;;;;5103453;28;1898;-75
2021/12/02 07:51:35;;;;;;;;;;;;;;;;;;5068647;28;1311;-77
2021/12/02 07:54:02;;;;;;;;;;;;;;;;;;5074493;28;1280;-77
2021/12/02 07:56:29;;;;;;;;;;;;;;;;;;5068555;28;1140;-74
2021/12/02 07:58:55;;;;;;;;;;;;;;;;;;5073709;28;1242;-76
2021/12/02 08:01:20;;;;;;;;;;;;;;;;;;5079897;28;1246;-76
2021/12/02 08:03:47;;;;;;;;;;;;;;;;;;5082546;28;1151;-76
2021/12/02 08:06:14;;;;;;;;;;;;;;;;;;5064225;28;1192;-76
2021/12/02 08:08:39;;;;;;;;;;;;;;;;;;5097065;28;1898;-76
2021/12/02 08:11:09;;;;;;;;;;;;;;;;;;5079946;28;1242;-76
2021/12/02 08:13:34;;;;;;;;;;;;;;;;;;5084208;28;1228;-76
2021/12/02 08:16:01;;;;;;;;;;;;;;;;;;5102296;28;1100;-76
2021/12/02 08:18:27;;;;;;;;;;;;;;;;;;5085170;28;1312;-76
2021/12/02 08:20:53;;;;;;;;;;;;;;;;;;5067807;28;1540;-76
2021/12/02 08:23:19;;;;;;;;;;;;;;;;;;5100947;28;1131;-77
2021/12/02 08:25:45;;;;;;;;;;;;;;;;;;5075438;28;1176;-78
2021/12/02 08:28:10;;;;;;;;;;;;;;;;;;5045809;28;1197;-75
2021/12/02 08:30:37;;;;;;;;;;;;;;;;;;5083166;28;1898;-76
2021/12/02 08:33:03;;;;;;;;;;;;;;;;;;5063393;28;1104;-77
2021/12/02 08:35:29;;;;;;;;;;;;;;;;;;5063606;28;1318;-79
2021/12/02 08:38:01;;;;;;;;;;;;;;;;;;5042864;28;1283;-77
2021/12/02 08:40:32;;;;;;;;;;;;;;;;;;5078132;28;1215;-76
2021/12/02 08:43:00;;;;;;;;;;;;;;;;;;5082644;28;1179;-75
2021/12/02 08:45:26;;;;;;;;;;;;;;;;;;5085451;28;1408;-75
2021/12/02 08:47:51;;;;;;;;;;;;;;;;;;5099444;28;1235;-76
2021/12/02 08:50:18;;;;;;;;;;;;;;;;;;5103869;28;1973;-76
2021/12/02 08:52:44;;;;;;;;;;;;;;;;;;5081478;28;1211;-75
2021/12/02 08:55:10;;;;;;;;;;;;;;;;;;5082702;28;1281;-75
2021/12/02 08:57:36;;;;;;;;;;;;;;;;;;5045592;28;1322;-76
2021/12/02 09:00:03;;;;;;;;;;;;;;;;;;5084598;28;1071;-75
2021/12/02 09:02:28;;;;;;;;;;;;;;;;;;5101437;28;1120;-76
2021/12/02 09:04:54;;;;;;;;;;;;;;;;;;5077819;28;1124;-75
2021/12/02 09:07:19;;;;;;;;;;;;;;;;;;5062926;28;1187;-75
2021/12/02 09:09:44;;;;;;;;;;;;;;;;;;5082750;28;1890;-75
2021/12/02 09:12:09;;;;;;;;;;;;;;;;;;5064334;28;1349;-75
2021/12/02 09:14:36;;;;;;;;;;;;;;;;;;5085488;28;1020;-75
2021/12/02 09:17:01;;;;;;;;;;;;;;;;;;5066820;28;1459;-73
2021/12/02 09:19:27;;;;;;;;;;;;;;;;;;5086283;28;1124;-75
2021/12/02 09:21:52;;;;;;;;;;;;;;;;;;5084617;28;1331;-76
2021/12/02 09:24:19;;;;;;;;;;;;;;;;;;5091407;28;1113;-76
2021/12/02 09:26:49;;;;;;;;;;;;;;;;;;5086699;28;1317;-76
2021/12/02 09:29:15;;;;;;;;;;;;;;;;;;5084257;28;1951;-75
2021/12/02 09:31:41;;;;;;;;;;;;;;;;;;5089061;28;1329;-76
2021/12/02 09:34:06;;;;;;;;;;;;;;;;;;5084865;28;1226;-76
2021/12/02 09:36:32;;;;;;;;;;;;;;;;;;5088613;28;1302;-76
2021/12/02 09:38:58;;;;;;;;;;;;;;;;;;5083784;28;1284;-76
2021/12/02 09:41:24;;;;;;;;;;;;;;;;;;5107410;28;1187;-76
2021/12/02 09:43:49;;;;;;;;;;;;;;;;;;5102830;28;1116;-76
2021/12/02 09:46:15;;;;;;;;;;;;;;;;;;5069899;28;1230;-76
2021/12/02 09:48:40;;;;;;;;;;;;;;;;;;5100156;28;1910;-76
2021/12/02 09:51:27;;;;;;;;;;;;;;;;;;5066366;28;1275;-76
2021/12/02 09:54:00;;;;;;;;;;;;;;;;;;5082148;28;1028;-75
2021/12/02 09:56:30;;;;;;;;;;;;;;;;;;5053517;28;1230;-77
2021/12/02 09:58:56;;;;;;;;;;;;;;;;;;5064500;28;1219;-76
2021/12/02 10:01:35;;;;;;;;;;;;;;;;;;5087108;28;1293;-75
2021/12/02 10:04:02;;;;;;;;;;;;;;;;;;5064156;28;1180;-76
2021/12/02 10:06:30;;;;;;;;;;;;;;;;;;5070083;28;1303;-75
2021/12/02 10:09:10;;;;;;;;;;;;;;;;;;5063295;28;1897;-74
2021/12/02 10:11:41;;;;;;;;;;;;;;;;;;5101483;28;1226;-75
2021/12/02 10:14:15;;;;;;;;;;;;;;;;;;5083941;28;1281;-76
2021/12/02 10:16:44;;;;;;;;;;;;;;;;;;5106516;28;1092;-76
2021/12/02 10:19:11;;;;;;;;;;;;;;;;;;5086135;28;1146;-74
2021/12/02 10:21:49;;;;;;;;;;;;;;;;;;5084897;28;1381;-75
2021/12/02 10:24:16;;;;;;;;;;;;;;;;;;5102794;28;1145;-79
2021/12/02 10:26:44;;;;;;;;;;;;;;;;;;5073257;28;1281;-80
2021/12/02 10:29:10;;;;;;;;;;;;;;;;;;5073750;28;1955;-78
2021/12/02 10:31:37;;;;;;;;;;;;;;;;;;5085182;28;1206;-78
2021/12/02 10:34:03;;;;;;;;;;;;;;;;;;5085109;28;1409;-79
2021/12/02 10:36:39;;;;;;;;;;;;;;;;;;5087886;28;1163;-78
2021/12/02 10:39:20;;;;;;;;;;;;;;;;;;5071251;28;1299;-78
2021/12/02 10:41:46;;;;;;;;;;;;;;;;;;5063035;28;1278;-79
2021/12/02 10:44:28;;;;;;;;;;;;;;;;;;5074062;28;1192;-79
2021/12/02 10:46:54;;;;;;;;;;;;;;;;;;5082308;28;1211;-79
2021/12/02 10:49:20;;;;;;;;;;;;;;;;;;5072583;28;1914;-79
2021/12/02 10:51:50;;;;;;;;;;;;;;;;;;5060499;28;1202;-78
2021/12/02 10:54:17;;;;;;;;;;;;;;;;;;5059692;28;1220;-79
2021/12/02 10:56:47;;;;;;;;;;;;;;;;;;5070797;28;1302;-79
2021/12/02 10:59:24;;;;;;;;;;;;;;;;;;5077696;28;1398;-79
2021/12/02 11:01:51;;;;;;;;;;;;;;;;;;5082265;28;1187;-80
2021/12/02 11:04:16;;;;;;;;;;;;;;;;;;5078309;28;1225;-79
2021/12/02 11:06:45;;;;;;;;;;;;;;;;;;5081389;28;1208;-80
2021/12/02 11:09:23;;;;;;;;;;;;;;;;;;5079539;28;1898;-80
2021/12/02 11:12:05;;;;;;;;;;;;;;;;;;5082641;28;1392;-82
2021/12/02 11:14:30;;;;;;;;;;;;;;;;;;5076717;28;1147;-81
2021/12/02 11:17:05;;;;;;;;;;;;;;;;;;5046452;28;1288;-83
2021/12/02 11:19:30;;;;;;;;;;;;;;;;;;5062428;28;1350;-78
2021/12/02 11:22:10;;;;;;;;;;;;;;;;;;5070941;28;1170;-79
2021/12/02 11:24:36;;;;;;;;;;;;;;;;;;5083019;28;1372;-79
2021/12/02 11:27:07;;;;;;;;;;;;;;;;;;5070393;28;1179;-79
2021/12/02 11:29:45;;;;;;;;;;;;;;;;;;5071417;28;1902;-80
2021/12/02 11:32:21;;;;;;;;;;;;;;;;;;5080572;28;1363;-80
2021/12/02 11:34:46;;;;;;;;;;;;;;;;;;5076148;28;1167;-80
2021/12/02 11:37:12;;;;;;;;;;;;;;;;;;5063664;28;1188;-80
2021/12/02 11:39:40;;;;;;;;;;;;;;;;;;5085048;28;1441;-79
2021/12/02 11:42:05;;;;;;;;;;;;;;;;;;5067538;28;1280;-79
2021/12/02 11:44:32;;;;;;;;;;;;;;;;;;5069446;28;1368;-79
2021/12/02 11:47:00;;;;;;;;;;;;;;;;;;5045109;28;1207;-79
2021/12/02 11:49:26;;;;;;;;;;;;;;;;;;5067542;28;1910;-79
2021/12/02 11:51:51;;;;;;;;;;;;;;;;;;5101484;28;1083;-79
2021/12/02 11:54:17;;;;;;;;;;;;;;;;;;5061988;28;1250;-79
2021/12/02 11:56:42;;;;;;;;;;;;;;;;;;5066978;28;1295;-80
2021/12/02 11:59:09;;;;;;;;;;;;;;;;;;5047964;28;1279;-80
2021/12/02 12:01:35;;;;;;;;;;;;;;;;;;5066215;28;1425;-79
2021/12/02 12:04:07;;;;;;;;;;;;;;;;;;5047893;28;1203;-78
2021/12/02 12:06:34;;;;;;;;;;;;;;;;;;5104951;28;1182;-79
2021/12/02 12:09:02;;;;;;;;;;;;;;;;;;5081282;28;1886;-78
2021/12/02 12:11:35;;;;;;;;;;;;;;;;;;5070148;28;1147;-80
2021/12/02 12:14:03;;;;;;;;;;;;;;;;;;5078917;28;1520;-79
2021/12/02 12:16:33;;;;;;;;;;;;;;;;;;5073877;28;1456;-79
2021/12/02 12:19:17;;;;;;;;;;;;;;;;;;5099906;28;1203;-79
2021/12/02 12:21:45;;;;;;;;;;;;;;;;;;5084439;28;1313;-79
2021/12/02 12:24:14;;;;;;;;;;;;;;;;;;5066236;28;1211;-79
2021/12/02 12:26:41;;;;;;;;;;;;;;;;;;5071682;28;1215;-79
2021/12/02 12:29:07;;;;;;;;;;;;;;;;;;5076889;28;1959;-78
2021/12/02 12:31:42;;;;;;;;;;;;;;;;;;5094714;28;1140;-79
2021/12/02 12:34:26;;;;;;;;;;;;;;;;;;5077058;28;1314;-78
2021/12/02 12:36:51;;;;;;;;;;;;;;;;;;5082415;28;1436;-79
2021/12/02 12:39:21;;;;;;;;;;;;;;;;;;5073670;28;1239;-76
2021/12/02 12:42:15;;;;;;;;;;;;;;;;;;5081329;28;1172;-78
2021/12/02 12:44:48;;;;;;;;;;;;;;;;;;5065296;28;1309;-76
2021/12/02 12:47:13;;;;;;;;;;;;;;;;;;5064824;28;1498;-78
2021/12/02 12:49:39;;;;;;;;;;;;;;;;;;5081086;28;1981;-78
2021/12/02 12:52:14;;;;;;;;;;;;;;;;;;5060666;28;1193;-79
2021/12/02 12:54:40;;;;;;;;;;;;;;;;;;5062312;28;1153;-79
2021/12/02 12:57:05;;;;;;;;;;;;;;;;;;5077357;28;1247;-78
2021/12/02 12:59:46;;;;;;;;;;;;;;;;;;5096011;28;1222;-79
2021/12/02 13:02:13;;;;;;;;;;;;;;;;;;5078911;28;1116;-79
2021/12/02 13:04:52;;;;;;;;;;;;;;;;;;5062325;28;1290;-79
2021/12/02 13:07:19;;;;;;;;;;;;;;;;;;5057130;28;1251;-77
2021/12/02 13:10:02;;;;;;;;;;;;;;;;;;5074808;28;1953;-78
2021/12/02 13:12:36;;;;;;;;;;;;;;;;;;5059609;28;1096;-79
2021/12/02 13:15:02;;;;;;;;;;;;;;;;;;5083585;28;1317;-77
2021/12/02 13:17:36;;;;;;;;;;;;;;;;;;5082367;28;1379;-76
2021/12/02 13:20:13;;;;;;;;;;;;;;;;;;5102336;28;1152;-77
2021/12/02 13:22:38;;;;;;;;;;;;;;;;;;5060255;28;1183;-76
2021/12/02 13:25:22;;;;;;;;;;;;;;;;;;5080663;28;1219;-74
2021/12/02 13:27:47;;;;;;;;;;;;;;;;;;5079291;28;1076;-75
2021/12/02 13:30:13;;;;;;;;;;;;;;;;;;5061564;28;1975;-75
2021/12/02 13:32:39;;;;;;;;;;;;;;;;;;5080015;28;1223;-75
2021/12/02 13:35:04;;;;;;;;;;;;;;;;;;5063277;28;1271;-76
2021/12/02 13:37:30;;;;;;;;;;;;;;;;;;5043720;28;1671;-76
2021/12/02 13:39:55;;;;;;;;;;;;;;;;;;5044592;28;1313;-76
2021/12/02 13:42:24;;;;;;;;;;;;;;;;;;5079041;28;1290;-76
2021/12/02 13:44:54;;;;;;;;;;;;;;;;;;5051585;28;1145;-76
2021/12/02 13:47:23;;;;;;;;;;;;;;;;;;5080086;28;1070;-76
2021/12/02 13:49:53;;;;;;;;;;;;;;;;;;5084534;28;1909;-76
2021/12/02 13:52:29;;;;;;;;;;;;;;;;;;5079293;28;1340;-76
2021/12/02 13:54:58;;;;;;;;;;;;;;;;;;5083542;28;1283;-75
2021/12/02 13:57:37;;;;;;;;;;;;;;;;;;5081230;28;1384;-76
2021/12/02 14:00:15;;;;;;;;;;;;;;;;;;5110168;28;1167;-75
2021/12/02 14:02:41;;;;;;;;;;;;;;;;;;5114478;28;1269;-76
2021/12/02 14:05:08;;;;;;;;;;;;;;;;;;5110072;28;1486;-76
2021/12/02 14:07:35;;;;;;;;;;;;;;;;;;5066114;28;1159;-76
2021/12/02 14:10:00;;;;;;;;;;;;;;;;;;5103571;28;1890;-76
2021/12/02 14:12:38;;;;;;;;;;;;;;;;;;5081378;28;1209;-77
2021/12/02 14:15:12;;;;;;;;;;;;;;;;;;5096299;28;1147;-75
2021/12/02 14:17:51;;;;;;;;;;;;;;;;;;5064601;28;1212;-75
2021/12/02 14:20:17;;;;;;;;;;;;;;;;;;5064083;28;1195;-76
2021/12/02 14:22:46;;;;;;;;;;;;;;;;;;5047085;28;1428;-76
2021/12/02 14:25:12;;;;;;;;;;;;;;;;;;5062893;28;1354;-77
2021/12/02 14:27:38;;;;;;;;;;;;;;;;;;5060211;28;1183;-76
2021/12/02 14:30:14;;;;;;;;;;;;;;;;;;5086334;28;1955;-75
2021/12/02 14:32:41;;;;;;;;;;;;;;;;;;5085662;28;1347;-77
2021/12/02 14:35:10;;;;;;;;;;;;;;;;;;5086946;28;1186;-76
2021/12/02 14:37:35;;;;;;;;;;;;;;;;;;5065324;28;1392;-76
2021/12/02 14:40:00;;;;;;;;;;;;;;;;;;5084066;28;1203;-76
2021/12/02 14:42:26;;;;;;;;;;;;;;;;;;5062994;28;1371;-76
2021/12/02 14:44:51;;;;;;;;;;;;;;;;;;5068289;28;1202;-76
2021/12/02 14:47:20;;;;;;;;;;;;;;;;;;5077562;28;1152;-76
2021/12/02 14:49:48;;;;;;;;;;;;;;;;;;5087193;28;1972;-76
2021/12/02 14:52:22;;;;;;;;;;;;;;;;;;5084895;28;1352;-76
2021/12/02 14:54:51;;;;;;;;;;;;;;;;;;5082493;28;1293;-77
2021/12/02 14:57:24;;;;;;;;;;;;;;;;;;5094762;28;1239;-76
2021/12/02 14:59:57;;;;;;;;;;;;;;;;;;5084961;28;1231;-77
2021/12/02 15:02:24;;;;;;;;;;;;;;;;;;5065053;28;1342;-76
2021/12/02 15:04:51;;;;;;;;;;;;;;;;;;5088453;28;1179;-76
2021/12/02 15:07:24;;;;;;;;;;;;;;;;;;5074109;28;1433;-76
2021/12/02 15:09:51;;;;;;;;;;;;;;;;;;5083156;28;1957;-76
2021/12/02 15:12:25;;;;;;;;;;;;;;;;;;5081117;28;1152;-77
2021/12/02 15:14:52;;;;;;;;;;;;;;;;;;5066818;28;1334;-76
2021/12/02 15:17:19;;;;;;;;;;;;;;;;;;5064470;28;1321;-77
2021/12/02 15:19:46;;;;;;;;;;;;;;;;;;5064876;28;1242;-76
2021/12/02 15:22:28;;;;;;;;;;;;;;;;;;5063729;28;1219;-76
2021/12/02 15:25:08;;;;;;;;;;;;;;;;;;5081336;28;1190;-77
2021/12/02 15:27:52;;;;;;;;;;;;;;;;;;5083194;28;1575;-77
2021/12/02 15:30:18;;;;;;;;;;;;;;;;;;5094014;28;1951;-77
2021/12/02 15:32:43;;;;;;;;;;;;;;;;;;5051397;28;1227;-76
2021/12/02 15:35:08;;;;;;;;;;;;;;;;;;5065919;28;1250;-76
2021/12/02 15:37:33;;;;;;;;;;;;;;;;;;5046438;28;1526;-77
2021/12/02 15:39:59;;;;;;;;;;;;;;;;;;5074131;28;1322;-77
2021/12/02 15:42:30;;;;;;;;;;;;;;;;;;5084099;28;1422;-77
2021/12/02 15:44:56;;;;;;;;;;;;;;;;;;5070562;28;1199;-76
2021/12/02 15:47:22;;;;;;;;;;;;;;;;;;5102476;28;1111;-76
2021/12/02 15:49:59;;;;;;;;;;;;;;;;;;5068772;28;1901;-75
2021/12/02 15:52:27;;;;;;;;;;;;;;;;;;5084147;28;1183;-76
2021/12/02 15:54:53;;;;;;;;;;;;;;;;;;5059282;28;1317;-75
2021/12/02 15:57:27;;;;;;;;;;;;;;;;;;5065778;28;1292;-78
2021/12/02 15:59:53;;;;;;;;;;;;;;;;;;5085169;28;1259;-75
2021/12/02 16:04:56;;;;;;;;;;;;;;;;;;5084067;28;1223;-75
2021/12/02 16:07:29;;;;;;;;;;;;;;;;;;5062651;28;1120;-76
2021/12/02 16:12:38;;;;;;;;;;;;;;;;;;5085258;28;1270;-77
2021/12/02 16:15:05;;;;;;;;;;;;;;;;;;5089267;28;1167;-77
2021/12/02 16:17:33;;;;;;;;;;;;;;;;;;5070357;28;1271;-77
2021/12/02 16:19:58;;;;;;;;;;;;;;;;;;5070371;28;1325;-77
2021/12/02 16:22:24;;;;;;;;;;;;;;;;;;5092905;28;1068;-77
2021/12/02 16:24:53;;;;;;;;;;;;;;;;;;5065976;28;1195;-77
2021/12/02 16:27:19;;;;;;;;;;;;;;;;;;5085316;28;1270;-76
2021/12/02 16:29:45;;;;;;;;;;;;;;;;;;5063804;28;1940;-76
2021/12/02 16:32:11;;;;;;;;;;;;;;;;;;5064398;28;1498;-76
2021/12/02 16:34:36;;;;;;;;;;;;;;;;;;5046766;28;1393;-76
2021/12/02 16:37:01;;;;;;;;;;;;;;;;;;5062011;28;1243;-76
2021/12/02 16:39:33;;;;;;;;;;;;;;;;;;5077803;28;1418;-76
2021/12/02 16:41:58;;;;;;;;;;;;;;;;;;5079560;28;1112;-76
2021/12/02 16:44:24;;;;;;;;;;;;;;;;;;5062830;28;1152;-76
2021/12/02 16:46:49;;;;;;;;;;;;;;;;;;5064202;28;1513;-76
2021/12/02 16:49:17;;;;;;;;;;;;;;;;;;5078752;28;1992;-82
2021/12/02 16:51:42;;;;;;;;;;;;;;;;;;5055606;28;1048;-82
2021/12/02 16:54:07;;;;;;;;;;;;;;;;;;5053339;28;1172;-83
2021/12/02 16:56:33;;;;;;;;;;;;;;;;;;5050710;28;1385;-82
2021/12/02 16:58:58;;;;;;;;;;;;;;;;;;5046590;28;1235;-80
2021/12/02 17:01:25;;;;;;;;;;;;;;;;;;5052887;28;1293;-81
2021/12/02 17:03:52;;;;;;;;;;;;;;;;;;5058761;28;1278;-81
2021/12/02 17:06:18;;;;;;;;;;;;;;;;;;5090147;28;1092;-82
2021/12/02 17:08:43;;;;;;;;;;;;;;;;;;5048294;28;1121;-78
2021/12/02 17:11:08;;;;;;;;;;;;;;;;;;5073535;28;1949;-77
2021/12/02 17:13:34;;;;;;;;;;;;;;;;;;5098589;28;1155;-77
2021/12/02 17:15:59;;;;;;;;;;;;;;;;;;5070031;28;1290;-76
2021/12/02 17:18:25;;;;;;;;;;;;;;;;;;5069186;28;1227;-79
2021/12/02 17:20:55;;;;;;;;;;;;;;;;;;5068681;28;1195;-77
2021/12/02 17:23:21;;;;;;;;;;;;;;;;;;5080252;28;1294;-79
2021/12/02 17:25:47;;;;;;;;;;;;;;;;;;5076925;28;1262;-78